sensor_id;sensor_type;location;lat;lon;timestamp;temperature;humidity
52919;DHT22;38793;52.690;6.812;2023-01-19T00:00:01;2.80;99.90
52919;DHT22;38793;52.690;6.812;2023-01-19T00:02:27;2.80;99.90
52919;DHT22;38793;52.690;6.812;2023-01-19T00:04:53;2.80;99.90
52919;DHT22;38793;52.690;6.812;2023-01-19T00:07:18;2.80;99.90
52919;DHT22;38793;52.690;6.812;2023-01-19T00:09:44;2.80;99.90
52919;DHT22;38793;52.690;6.812;2023-01-19T00:12:09;2.80;99.90
52919;DHT22;38793;52.690;6.812;2023-01-19T00:14:35;2.80;99.90
52919;DHT22;38793;52.690;6.812;2023-01-19T00:17:00;2.80;99.90
52919;DHT22;38793;52.690;6.812;2023-01-19T00:19:27;2.70;99.90
52919;DHT22;38793;52.690;6.812;2023-01-19T00:21:52;2.70;99.90
52919;DHT22;38793;52.690;6.812;2023-01-19T00:24:18;2.70;99.90
52919;DHT22;38793;52.690;6.812;2023-01-19T00:26:44;2.70;99.90
52919;DHT22;38793;52.690;6.812;2023-01-19T00:29:10;2.70;99.90
52919;DHT22;38793;52.690;6.812;2023-01-19T00:31:36;2.70;99.90
52919;DHT22;38793;52.690;6.812;2023-01-19T00:34:02;2.70;99.90
52919;DHT22;38793;52.690;6.812;2023-01-19T00:36:28;2.70;99.90
52919;DHT22;38793;52.690;6.812;2023-01-19T00:38:53;2.70;99.90
52919;DHT22;38793;52.690;6.812;2023-01-19T00:41:19;2.70;99.90
52919;DHT22;38793;52.690;6.812;2023-01-19T00:44:04;2.60;99.90
52919;DHT22;38793;52.690;6.812;2023-01-19T00:46:30;2.60;99.90
52919;DHT22;38793;52.690;6.812;2023-01-19T00:48:56;2.60;99.90
52919;DHT22;38793;52.690;6.812;2023-01-19T00:51:21;2.60;99.90
52919;DHT22;38793;52.690;6.812;2023-01-19T00:53:47;2.50;99.90
52919;DHT22;38793;52.690;6.812;2023-01-19T00:56:12;2.50;99.90
52919;DHT22;38793;52.690;6.812;2023-01-19T00:58:38;2.40;99.90
52919;DHT22;38793;52.690;6.812;2023-01-19T01:01:03;2.40;99.90
52919;DHT22;38793;52.690;6.812;2023-01-19T01:03:31;2.30;99.90
52919;DHT22;38793;52.690;6.812;2023-01-19T01:05:57;2.20;99.90
52919;DHT22;38793;52.690;6.812;2023-01-19T01:08:22;2.20;99.90
52919;DHT22;38793;52.690;6.812;2023-01-19T01:10:49;2.10;99.90
52919;DHT22;38793;52.690;6.812;2023-01-19T01:13:15;2.10;99.90
52919;DHT22;38793;52.690;6.812;2023-01-19T01:15:41;2.10;99.90
52919;DHT22;38793;52.690;6.812;2023-01-19T01:18:07;2.10;99.90
52919;DHT22;38793;52.690;6.812;2023-01-19T01:20:33;2.10;99.90
52919;DHT22;38793;52.690;6.812;2023-01-19T01:23:01;2.00;99.90
52919;DHT22;38793;52.690;6.812;2023-01-19T01:25:27;2.10;99.90
52919;DHT22;38793;52.690;6.812;2023-01-19T01:27:55;2.10;99.90
52919;DHT22;38793;52.690;6.812;2023-01-19T01:30:21;2.00;99.90
52919;DHT22;38793;52.690;6.812;2023-01-19T01:32:47;2.00;99.90
52919;DHT22;38793;52.690;6.812;2023-01-19T01:35:13;2.00;99.90
52919;DHT22;38793;52.690;6.812;2023-01-19T01:37:40;2.00;99.90
52919;DHT22;38793;52.690;6.812;2023-01-19T01:40:07;2.00;99.90
52919;DHT22;38793;52.690;6.812;2023-01-19T01:42:33;2.00;99.90
52919;DHT22;38793;52.690;6.812;2023-01-19T01:45:02;2.00;99.90
52919;DHT22;38793;52.690;6.812;2023-01-19T01:47:35;2.00;99.90
52919;DHT22;38793;52.690;6.812;2023-01-19T01:50:19;2.10;99.90
52919;DHT22;38793;52.690;6.812;2023-01-19T01:55:25;2.10;99.90
52919;DHT22;38793;52.690;6.812;2023-01-19T01:58:01;2.10;99.90
52919;DHT22;38793;52.690;6.812;2023-01-19T02:00:28;2.10;99.90
52919;DHT22;38793;52.690;6.812;2023-01-19T02:03:13;2.10;99.90
52919;DHT22;38793;52.690;6.812;2023-01-19T02:05:40;2.10;99.90
52919;DHT22;38793;52.690;6.812;2023-01-19T02:08:07;2.20;99.90
52919;DHT22;38793;52.690;6.812;2023-01-19T02:10:53;2.10;99.90
52919;DHT22;38793;52.690;6.812;2023-01-19T02:13:40;2.20;99.90
52919;DHT22;38793;52.690;6.812;2023-01-19T02:16:08;2.20;99.90
52919;DHT22;38793;52.690;6.812;2023-01-19T02:18:35;2.20;99.90
52919;DHT22;38793;52.690;6.812;2023-01-19T02:21:11;2.20;99.90
52919;DHT22;38793;52.690;6.812;2023-01-19T02:23:44;2.20;99.90
52919;DHT22;38793;52.690;6.812;2023-01-19T02:26:14;2.20;99.90
52919;DHT22;38793;52.690;6.812;2023-01-19T02:28:48;2.20;99.90
52919;DHT22;38793;52.690;6.812;2023-01-19T02:31:15;2.30;99.90
52919;DHT22;38793;52.690;6.812;2023-01-19T02:33:41;2.30;99.90
52919;DHT22;38793;52.690;6.812;2023-01-19T02:36:09;2.30;99.90
52919;DHT22;38793;52.690;6.812;2023-01-19T02:38:38;2.30;99.90
52919;DHT22;38793;52.690;6.812;2023-01-19T02:41:06;2.30;99.90
52919;DHT22;38793;52.690;6.812;2023-01-19T02:43:34;2.30;99.90
52919;DHT22;38793;52.690;6.812;2023-01-19T02:46:00;2.40;99.90
52919;DHT22;38793;52.690;6.812;2023-01-19T02:48:27;2.30;99.90
52919;DHT22;38793;52.690;6.812;2023-01-19T02:50:58;2.40;99.90
52919;DHT22;38793;52.690;6.812;2023-01-19T02:53:41;2.30;99.90
52919;DHT22;38793;52.690;6.812;2023-01-19T02:56:22;2.30;99.90
52919;DHT22;38793;52.690;6.812;2023-01-19T03:04:37;2.40;99.90
52919;DHT22;38793;52.690;6.812;2023-01-19T03:10:00;2.40;99.90
52919;DHT22;38793;52.690;6.812;2023-01-19T03:12:48;2.40;99.90
52919;DHT22;38793;52.690;6.812;2023-01-19T03:15:22;2.40;99.90
52919;DHT22;38793;52.690;6.812;2023-01-19T03:17:52;2.40;99.90
52919;DHT22;38793;52.690;6.812;2023-01-19T03:20:21;2.40;99.90
52919;DHT22;38793;52.690;6.812;2023-01-19T03:22:53;2.40;99.90
52919;DHT22;38793;52.690;6.812;2023-01-19T03:25:21;2.40;99.90
52919;DHT22;38793;52.690;6.812;2023-01-19T03:27:49;2.50;99.90
52919;DHT22;38793;52.690;6.812;2023-01-19T03:30:25;2.50;99.90
52919;DHT22;38793;52.690;6.812;2023-01-19T03:32:57;2.40;99.90
52919;DHT22;38793;52.690;6.812;2023-01-19T03:35:26;2.50;99.90
52919;DHT22;38793;52.690;6.812;2023-01-19T03:37:55;2.50;99.90
52919;DHT22;38793;52.690;6.812;2023-01-19T03:40:26;2.50;99.90
52919;DHT22;38793;52.690;6.812;2023-01-19T03:42:54;2.40;99.90
52919;DHT22;38793;52.690;6.812;2023-01-19T03:45:20;2.50;99.90
52919;DHT22;38793;52.690;6.812;2023-01-19T03:47:47;2.50;99.90
52919;DHT22;38793;52.690;6.812;2023-01-19T03:50:20;2.50;99.90
52919;DHT22;38793;52.690;6.812;2023-01-19T03:53:06;2.50;99.90
52919;DHT22;38793;52.690;6.812;2023-01-19T03:55:33;2.50;99.90
52919;DHT22;38793;52.690;6.812;2023-01-19T03:57:59;2.50;99.90
52919;DHT22;38793;52.690;6.812;2023-01-19T04:00:25;2.50;99.90
52919;DHT22;38793;52.690;6.812;2023-01-19T04:02:50;2.50;99.90
52919;DHT22;38793;52.690;6.812;2023-01-19T04:05:16;2.50;99.90
52919;DHT22;38793;52.690;6.812;2023-01-19T04:07:43;2.50;99.90
52919;DHT22;38793;52.690;6.812;2023-01-19T04:10:09;2.50;99.90
52919;DHT22;38793;52.690;6.812;2023-01-19T04:12:37;2.50;99.90
52919;DHT22;38793;52.690;6.812;2023-01-19T04:15:04;2.40;99.90
52919;DHT22;38793;52.690;6.812;2023-01-19T04:17:30;2.50;99.90
52919;DHT22;38793;52.690;6.812;2023-01-19T04:19:56;2.40;99.90
52919;DHT22;38793;52.690;6.812;2023-01-19T04:22:22;2.50;99.90
52919;DHT22;38793;52.690;6.812;2023-01-19T04:24:47;2.40;99.90
52919;DHT22;38793;52.690;6.812;2023-01-19T04:27:13;2.40;99.90
52919;DHT22;38793;52.690;6.812;2023-01-19T04:29:40;2.40;99.90
52919;DHT22;38793;52.690;6.812;2023-01-19T04:32:06;2.40;99.90
52919;DHT22;38793;52.690;6.812;2023-01-19T04:34:32;2.40;99.90
52919;DHT22;38793;52.690;6.812;2023-01-19T04:36:57;2.40;99.90
52919;DHT22;38793;52.690;6.812;2023-01-19T04:39:23;2.40;99.90
52919;DHT22;38793;52.690;6.812;2023-01-19T04:41:48;2.40;99.90
52919;DHT22;38793;52.690;6.812;2023-01-19T04:44:16;2.40;99.90
52919;DHT22;38793;52.690;6.812;2023-01-19T04:46:42;2.30;99.90
52919;DHT22;38793;52.690;6.812;2023-01-19T04:49:08;2.30;99.90
52919;DHT22;38793;52.690;6.812;2023-01-19T04:51:34;2.30;99.90
52919;DHT22;38793;52.690;6.812;2023-01-19T04:54:00;2.30;99.90
52919;DHT22;38793;52.690;6.812;2023-01-19T04:56:26;2.30;99.90
52919;DHT22;38793;52.690;6.812;2023-01-19T04:58:52;2.30;99.90
52919;DHT22;38793;52.690;6.812;2023-01-19T05:01:17;2.30;99.90
52919;DHT22;38793;52.690;6.812;2023-01-19T05:03:43;2.30;99.90
52919;DHT22;38793;52.690;6.812;2023-01-19T05:06:08;2.30;99.90
52919;DHT22;38793;52.690;6.812;2023-01-19T05:08:34;2.30;99.90
52919;DHT22;38793;52.690;6.812;2023-01-19T05:11:00;2.30;99.90
52919;DHT22;38793;52.690;6.812;2023-01-19T05:13:25;2.30;99.90
52919;DHT22;38793;52.690;6.812;2023-01-19T05:15:51;2.40;99.90
52919;DHT22;38793;52.690;6.812;2023-01-19T05:18:17;2.40;99.90
52919;DHT22;38793;52.690;6.812;2023-01-19T05:20:42;2.40;99.90
52919;DHT22;38793;52.690;6.812;2023-01-19T05:23:08;2.50;99.90
52919;DHT22;38793;52.690;6.812;2023-01-19T05:25:33;2.50;99.90
52919;DHT22;38793;52.690;6.812;2023-01-19T05:27:59;2.50;99.90
52919;DHT22;38793;52.690;6.812;2023-01-19T05:30:25;2.50;99.90
52919;DHT22;38793;52.690;6.812;2023-01-19T05:32:50;2.50;99.90
52919;DHT22;38793;52.690;6.812;2023-01-19T05:35:16;2.50;99.90
52919;DHT22;38793;52.690;6.812;2023-01-19T05:37:42;2.50;99.90
52919;DHT22;38793;52.690;6.812;2023-01-19T05:40:09;2.50;99.90
52919;DHT22;38793;52.690;6.812;2023-01-19T05:42:35;2.60;99.90
52919;DHT22;38793;52.690;6.812;2023-01-19T05:45:01;2.60;99.90
52919;DHT22;38793;52.690;6.812;2023-01-19T05:47:30;2.70;99.90
52919;DHT22;38793;52.690;6.812;2023-01-19T05:49:56;2.70;99.90
52919;DHT22;38793;52.690;6.812;2023-01-19T05:52:21;2.70;99.90
52919;DHT22;38793;52.690;6.812;2023-01-19T05:54:49;2.80;99.90
52919;DHT22;38793;52.690;6.812;2023-01-19T05:57:16;2.80;99.90
52919;DHT22;38793;52.690;6.812;2023-01-19T05:59:42;2.90;99.90
52919;DHT22;38793;52.690;6.812;2023-01-19T06:02:07;2.90;99.90
52919;DHT22;38793;52.690;6.812;2023-01-19T06:04:33;2.90;99.90
52919;DHT22;38793;52.690;6.812;2023-01-19T06:06:59;2.90;99.90
52919;DHT22;38793;52.690;6.812;2023-01-19T06:09:26;3.00;99.90
52919;DHT22;38793;52.690;6.812;2023-01-19T06:11:52;3.10;99.90
52919;DHT22;38793;52.690;6.812;2023-01-19T06:14:20;3.10;99.90
52919;DHT22;38793;52.690;6.812;2023-01-19T06:16:45;3.10;99.90
52919;DHT22;38793;52.690;6.812;2023-01-19T06:19:11;3.10;99.90
52919;DHT22;38793;52.690;6.812;2023-01-19T06:21:36;3.10;99.90
52919;DHT22;38793;52.690;6.812;2023-01-19T06:24:02;3.20;99.90
52919;DHT22;38793;52.690;6.812;2023-01-19T06:26:28;3.10;99.90
52919;DHT22;38793;52.690;6.812;2023-01-19T06:28:54;3.20;99.90
52919;DHT22;38793;52.690;6.812;2023-01-19T06:31:20;3.20;99.90
52919;DHT22;38793;52.690;6.812;2023-01-19T06:33:46;3.20;99.90
52919;DHT22;38793;52.690;6.812;2023-01-19T06:36:11;3.20;99.90
52919;DHT22;38793;52.690;6.812;2023-01-19T06:38:37;3.20;99.90
52919;DHT22;38793;52.690;6.812;2023-01-19T06:41:03;3.20;99.90
52919;DHT22;38793;52.690;6.812;2023-01-19T06:43:29;3.20;99.90
52919;DHT22;38793;52.690;6.812;2023-01-19T06:45:56;3.10;99.90
52919;DHT22;38793;52.690;6.812;2023-01-19T06:48:22;3.10;99.90
52919;DHT22;38793;52.690;6.812;2023-01-19T06:50:48;3.10;99.90
52919;DHT22;38793;52.690;6.812;2023-01-19T06:53:14;3.10;99.90
52919;DHT22;38793;52.690;6.812;2023-01-19T06:55:44;3.10;99.90
52919;DHT22;38793;52.690;6.812;2023-01-19T06:58:10;3.10;99.90
52919;DHT22;38793;52.690;6.812;2023-01-19T07:00:36;3.10;99.90
52919;DHT22;38793;52.690;6.812;2023-01-19T07:03:05;3.10;99.90
52919;DHT22;38793;52.690;6.812;2023-01-19T07:05:33;3.00;99.90
52919;DHT22;38793;52.690;6.812;2023-01-19T07:07:59;3.00;99.90
52919;DHT22;38793;52.690;6.812;2023-01-19T07:10:25;3.00;99.90
52919;DHT22;38793;52.690;6.812;2023-01-19T07:12:50;2.90;99.90
52919;DHT22;38793;52.690;6.812;2023-01-19T07:15:17;2.90;99.90
52919;DHT22;38793;52.690;6.812;2023-01-19T07:17:47;2.80;99.90
52919;DHT22;38793;52.690;6.812;2023-01-19T07:20:13;2.80;99.90
52919;DHT22;38793;52.690;6.812;2023-01-19T07:22:42;2.70;99.90
52919;DHT22;38793;52.690;6.812;2023-01-19T07:25:10;2.70;99.90
52919;DHT22;38793;52.690;6.812;2023-01-19T07:27:35;2.70;99.90
52919;DHT22;38793;52.690;6.812;2023-01-19T07:30:01;2.70;99.90
52919;DHT22;38793;52.690;6.812;2023-01-19T07:32:27;2.80;99.90
52919;DHT22;38793;52.690;6.812;2023-01-19T07:34:53;2.80;99.90
52919;DHT22;38793;52.690;6.812;2023-01-19T07:37:18;2.80;99.90
52919;DHT22;38793;52.690;6.812;2023-01-19T07:39:44;2.90;99.90
52919;DHT22;38793;52.690;6.812;2023-01-19T07:42:09;2.90;99.90
52919;DHT22;38793;52.690;6.812;2023-01-19T07:44:35;2.90;99.90
52919;DHT22;38793;52.690;6.812;2023-01-19T07:47:01;2.90;99.90
52919;DHT22;38793;52.690;6.812;2023-01-19T07:49:27;2.90;99.90
52919;DHT22;38793;52.690;6.812;2023-01-19T07:51:52;2.90;99.90
52919;DHT22;38793;52.690;6.812;2023-01-19T07:54:21;2.90;99.90
52919;DHT22;38793;52.690;6.812;2023-01-19T07:56:46;3.00;99.90
52919;DHT22;38793;52.690;6.812;2023-01-19T07:59:12;3.00;99.90
52919;DHT22;38793;52.690;6.812;2023-01-19T08:01:38;3.00;99.90
52919;DHT22;38793;52.690;6.812;2023-01-19T08:04:03;3.10;99.90
52919;DHT22;38793;52.690;6.812;2023-01-19T08:06:33;3.10;99.90
52919;DHT22;38793;52.690;6.812;2023-01-19T08:08:59;3.20;99.90
52919;DHT22;38793;52.690;6.812;2023-01-19T08:11:25;3.20;99.90
52919;DHT22;38793;52.690;6.812;2023-01-19T08:13:50;3.20;99.90
52919;DHT22;38793;52.690;6.812;2023-01-19T08:16:16;3.20;99.90
52919;DHT22;38793;52.690;6.812;2023-01-19T08:18:41;3.20;99.90
52919;DHT22;38793;52.690;6.812;2023-01-19T08:21:07;3.20;99.90
52919;DHT22;38793;52.690;6.812;2023-01-19T08:23:33;3.20;99.90
52919;DHT22;38793;52.690;6.812;2023-01-19T08:25:59;3.20;99.90
52919;DHT22;38793;52.690;6.812;2023-01-19T08:28:24;3.20;99.90
52919;DHT22;38793;52.690;6.812;2023-01-19T08:30:50;3.10;99.90
52919;DHT22;38793;52.690;6.812;2023-01-19T08:33:21;3.10;99.90
52919;DHT22;38793;52.690;6.812;2023-01-19T08:35:49;3.10;99.90
52919;DHT22;38793;52.690;6.812;2023-01-19T08:38:15;3.10;99.90
52919;DHT22;38793;52.690;6.812;2023-01-19T08:40:41;3.10;99.90
52919;DHT22;38793;52.690;6.812;2023-01-19T08:43:14;3.10;99.90
52919;DHT22;38793;52.690;6.812;2023-01-19T08:45:42;3.10;99.90
52919;DHT22;38793;52.690;6.812;2023-01-19T08:48:15;3.20;99.90
52919;DHT22;38793;52.690;6.812;2023-01-19T08:50:40;3.30;99.90
52919;DHT22;38793;52.690;6.812;2023-01-19T08:53:06;3.40;99.90
52919;DHT22;38793;52.690;6.812;2023-01-19T08:55:34;3.40;99.90
52919;DHT22;38793;52.690;6.812;2023-01-19T08:58:00;3.50;99.90
52919;DHT22;38793;52.690;6.812;2023-01-19T09:00:28;3.60;99.90
52919;DHT22;38793;52.690;6.812;2023-01-19T09:02:56;3.60;99.90
52919;DHT22;38793;52.690;6.812;2023-01-19T09:05:22;3.70;99.90
52919;DHT22;38793;52.690;6.812;2023-01-19T09:07:48;3.80;99.90
52919;DHT22;38793;52.690;6.812;2023-01-19T09:10:14;3.90;99.90
52919;DHT22;38793;52.690;6.812;2023-01-19T09:12:40;4.00;99.90
52919;DHT22;38793;52.690;6.812;2023-01-19T09:15:06;4.30;99.90
52919;DHT22;38793;52.690;6.812;2023-01-19T09:17:32;4.60;99.90
52919;DHT22;38793;52.690;6.812;2023-01-19T09:19:58;4.80;99.90
52919;DHT22;38793;52.690;6.812;2023-01-19T09:22:24;4.90;99.90
52919;DHT22;38793;52.690;6.812;2023-01-19T09:24:49;4.90;99.90
52919;DHT22;38793;52.690;6.812;2023-01-19T09:27:15;4.90;99.90
52919;DHT22;38793;52.690;6.812;2023-01-19T09:29:40;4.90;99.90
52919;DHT22;38793;52.690;6.812;2023-01-19T09:32:06;4.80;99.90
52919;DHT22;38793;52.690;6.812;2023-01-19T09:34:33;4.80;99.90
52919;DHT22;38793;52.690;6.812;2023-01-19T09:36:58;4.70;99.90
52919;DHT22;38793;52.690;6.812;2023-01-19T09:39:24;4.60;99.90
52919;DHT22;38793;52.690;6.812;2023-01-19T09:42:00;4.60;99.90
52919;DHT22;38793;52.690;6.812;2023-01-19T09:44:33;4.60;99.90
52919;DHT22;38793;52.690;6.812;2023-01-19T09:47:02;4.50;99.90
52919;DHT22;38793;52.690;6.812;2023-01-19T09:49:39;4.50;99.90
52919;DHT22;38793;52.690;6.812;2023-01-19T09:52:13;4.50;99.90
52919;DHT22;38793;52.690;6.812;2023-01-19T09:54:51;4.50;99.90
52919;DHT22;38793;52.690;6.812;2023-01-19T09:57:19;4.40;99.90
52919;DHT22;38793;52.690;6.812;2023-01-19T09:59:44;4.50;99.90
52919;DHT22;38793;52.690;6.812;2023-01-19T10:08:14;5.40;99.90
52919;DHT22;38793;52.690;6.812;2023-01-19T10:10:46;5.80;99.90
52919;DHT22;38793;52.690;6.812;2023-01-19T10:13:29;6.00;99.90
52919;DHT22;38793;52.690;6.812;2023-01-19T10:19:16;6.00;99.90
52919;DHT22;38793;52.690;6.812;2023-01-19T10:21:47;6.20;99.90
52919;DHT22;38793;52.690;6.812;2023-01-19T10:24:22;6.70;99.90
52919;DHT22;38793;52.690;6.812;2023-01-19T10:26:51;7.60;99.90
52919;DHT22;38793;52.690;6.812;2023-01-19T10:29:35;8.80;99.90
52919;DHT22;38793;52.690;6.812;2023-01-19T10:32:11;10.20;99.90
52919;DHT22;38793;52.690;6.812;2023-01-19T10:34:38;11.20;99.90
52919;DHT22;38793;52.690;6.812;2023-01-19T10:39:44;11.90;99.90
52919;DHT22;38793;52.690;6.812;2023-01-19T10:42:13;11.60;99.90
52919;DHT22;38793;52.690;6.812;2023-01-19T10:44:40;11.40;99.90
52919;DHT22;38793;52.690;6.812;2023-01-19T10:47:22;11.70;99.90
52919;DHT22;38793;52.690;6.812;2023-01-19T10:49:52;12.30;99.90
52919;DHT22;38793;52.690;6.812;2023-01-19T10:52:32;12.80;99.90
52919;DHT22;38793;52.690;6.812;2023-01-19T10:55:04;12.80;98.80
52919;DHT22;38793;52.690;6.812;2023-01-19T10:59:58;12.70;97.20
52919;DHT22;38793;52.690;6.812;2023-01-19T11:02:25;12.80;97.50
52919;DHT22;38793;52.690;6.812;2023-01-19T11:04:54;12.90;97.20
52919;DHT22;38793;52.690;6.812;2023-01-19T11:07:22;12.90;97.60
52919;DHT22;38793;52.690;6.812;2023-01-19T11:09:49;12.90;96.90
52919;DHT22;38793;52.690;6.812;2023-01-19T11:12:19;12.60;96.60
52919;DHT22;38793;52.690;6.812;2023-01-19T11:14:46;12.60;97.20
52919;DHT22;38793;52.690;6.812;2023-01-19T11:17:21;12.40;97.30
52919;DHT22;38793;52.690;6.812;2023-01-19T11:19:59;12.10;97.70
52919;DHT22;38793;52.690;6.812;2023-01-19T11:22:29;11.90;96.80
52919;DHT22;38793;52.690;6.812;2023-01-19T11:25:03;12.10;97.80
52919;DHT22;38793;52.690;6.812;2023-01-19T11:27:33;12.20;97.00
52919;DHT22;38793;52.690;6.812;2023-01-19T11:30:21;12.30;96.50
52919;DHT22;38793;52.690;6.812;2023-01-19T11:32:48;12.60;96.40
52919;DHT22;38793;52.690;6.812;2023-01-19T11:35:38;12.60;95.20
52919;DHT22;38793;52.690;6.812;2023-01-19T11:38:18;12.30;93.40
52919;DHT22;38793;52.690;6.812;2023-01-19T11:40:56;12.40;93.50
52919;DHT22;38793;52.690;6.812;2023-01-19T11:43:22;12.40;93.20
52919;DHT22;38793;52.690;6.812;2023-01-19T11:45:48;12.20;91.90
52919;DHT22;38793;52.690;6.812;2023-01-19T11:48:26;12.00;92.40
52919;DHT22;38793;52.690;6.812;2023-01-19T11:50:53;11.80;92.10
52919;DHT22;38793;52.690;6.812;2023-01-19T11:53:24;12.20;92.00
52919;DHT22;38793;52.690;6.812;2023-01-19T11:56:06;12.30;91.50
52919;DHT22;38793;52.690;6.812;2023-01-19T11:58:39;12.40;92.60
52919;DHT22;38793;52.690;6.812;2023-01-19T12:01:15;12.60;91.40
52919;DHT22;38793;52.690;6.812;2023-01-19T12:04:26;12.40;90.60
52919;DHT22;38793;52.690;6.812;2023-01-19T12:06:42;12.10;88.00
52919;DHT22;38793;52.690;6.812;2023-01-19T12:09:35;12.40;90.60
52919;DHT22;38793;52.690;6.812;2023-01-19T12:15:09;12.90;89.30
52919;DHT22;38793;52.690;6.812;2023-01-19T12:17:48;13.20;85.10
52919;DHT22;38793;52.690;6.812;2023-01-19T12:20:37;13.80;86.70
52919;DHT22;38793;52.690;6.812;2023-01-19T12:28:25;14.30;78.30
52919;DHT22;38793;52.690;6.812;2023-01-19T12:30:52;14.20;78.50
52919;DHT22;38793;52.690;6.812;2023-01-19T12:35:56;14.50;78.40
52919;DHT22;38793;52.690;6.812;2023-01-19T12:38:36;14.80;73.10
52919;DHT22;38793;52.690;6.812;2023-01-19T12:49:28;16.40;68.70
52919;DHT22;38793;52.690;6.812;2023-01-19T12:54:56;16.10;66.80
52919;DHT22;38793;52.690;6.812;2023-01-19T12:57:35;15.20;67.10
52919;DHT22;38793;52.690;6.812;2023-01-19T13:05:23;13.70;73.20
52919;DHT22;38793;52.690;6.812;2023-01-19T13:13:18;15.90;70.00
52919;DHT22;38793;52.690;6.812;2023-01-19T13:15:44;16.30;69.10
52919;DHT22;38793;52.690;6.812;2023-01-19T13:18:19;16.40;67.80
52919;DHT22;38793;52.690;6.812;2023-01-19T13:20:51;16.50;67.70
52919;DHT22;38793;52.690;6.812;2023-01-19T13:23:22;16.50;68.00
52919;DHT22;38793;52.690;6.812;2023-01-19T13:26:00;16.50;67.70
52919;DHT22;38793;52.690;6.812;2023-01-19T13:28:39;16.00;65.10
52919;DHT22;38793;52.690;6.812;2023-01-19T13:31:06;15.60;65.50
52919;DHT22;38793;52.690;6.812;2023-01-19T13:33:58;15.40;66.00
52919;DHT22;38793;52.690;6.812;2023-01-19T13:38:58;14.40;64.40
52919;DHT22;38793;52.690;6.812;2023-01-19T13:41:28;13.70;66.30
52919;DHT22;38793;52.690;6.812;2023-01-19T13:44:01;13.40;68.10
52919;DHT22;38793;52.690;6.812;2023-01-19T13:46:27;12.50;67.60
52919;DHT22;38793;52.690;6.812;2023-01-19T13:48:58;11.50;69.40
52919;DHT22;38793;52.690;6.812;2023-01-19T13:51:25;10.50;72.10
52919;DHT22;38793;52.690;6.812;2023-01-19T13:53:58;9.80;74.80
52919;DHT22;38793;52.690;6.812;2023-01-19T13:56:27;9.40;78.10
52919;DHT22;38793;52.690;6.812;2023-01-19T13:59:01;9.20;81.80
52919;DHT22;38793;52.690;6.812;2023-01-19T14:01:30;9.10;85.40
52919;DHT22;38793;52.690;6.812;2023-01-19T14:03:57;8.80;87.80
52919;DHT22;38793;52.690;6.812;2023-01-19T14:06:49;8.60;88.90
52919;DHT22;38793;52.690;6.812;2023-01-19T14:09:20;8.40;91.50
52919;DHT22;38793;52.690;6.812;2023-01-19T14:14:31;7.80;95.40
52919;DHT22;38793;52.690;6.812;2023-01-19T14:16:57;7.50;97.60
52919;DHT22;38793;52.690;6.812;2023-01-19T14:19:24;7.40;99.70
52919;DHT22;38793;52.690;6.812;2023-01-19T14:22:01;7.60;99.90
52919;DHT22;38793;52.690;6.812;2023-01-19T14:24:27;7.90;99.90
52919;DHT22;38793;52.690;6.812;2023-01-19T14:27:20;7.80;99.90
52919;DHT22;38793;52.690;6.812;2023-01-19T14:29:47;8.00;99.90
52919;DHT22;38793;52.690;6.812;2023-01-19T14:35:12;8.20;99.90
52919;DHT22;38793;52.690;6.812;2023-01-19T14:37:45;7.90;99.30
52919;DHT22;38793;52.690;6.812;2023-01-19T14:42:53;7.40;99.90
52919;DHT22;38793;52.690;6.812;2023-01-19T14:45:29;7.20;99.90
52919;DHT22;38793;52.690;6.812;2023-01-19T14:48:00;7.10;99.90
52919;DHT22;38793;52.690;6.812;2023-01-19T14:50:31;7.10;99.90
52919;DHT22;38793;52.690;6.812;2023-01-19T14:53:03;7.00;99.90
52919;DHT22;38793;52.690;6.812;2023-01-19T14:55:36;7.00;99.90
52919;DHT22;38793;52.690;6.812;2023-01-19T14:58:17;7.00;99.90
52919;DHT22;38793;52.690;6.812;2023-01-19T15:00:43;7.00;99.90
52919;DHT22;38793;52.690;6.812;2023-01-19T15:03:09;7.00;99.90
52919;DHT22;38793;52.690;6.812;2023-01-19T15:05:39;6.90;99.90
52919;DHT22;38793;52.690;6.812;2023-01-19T15:08:06;6.90;99.90
52919;DHT22;38793;52.690;6.812;2023-01-19T15:10:32;6.90;99.90
52919;DHT22;38793;52.690;6.812;2023-01-19T15:12:59;6.80;99.90
52919;DHT22;38793;52.690;6.812;2023-01-19T15:15:30;6.70;99.90
52919;DHT22;38793;52.690;6.812;2023-01-19T15:17:57;6.60;99.90
52919;DHT22;38793;52.690;6.812;2023-01-19T15:20:24;6.50;99.90
52919;DHT22;38793;52.690;6.812;2023-01-19T15:22:49;6.40;99.90
52919;DHT22;38793;52.690;6.812;2023-01-19T15:25:17;6.30;99.90
52919;DHT22;38793;52.690;6.812;2023-01-19T15:27:44;6.30;99.90
52919;DHT22;38793;52.690;6.812;2023-01-19T15:30:21;6.20;99.90
52919;DHT22;38793;52.690;6.812;2023-01-19T15:32:47;6.10;99.90
52919;DHT22;38793;52.690;6.812;2023-01-19T15:37:39;5.90;99.90
52919;DHT22;38793;52.690;6.812;2023-01-19T15:40:05;5.80;99.90
52919;DHT22;38793;52.690;6.812;2023-01-19T15:42:31;5.80;99.90
52919;DHT22;38793;52.690;6.812;2023-01-19T15:44:57;5.80;99.90
52919;DHT22;38793;52.690;6.812;2023-01-19T15:47:23;5.80;99.90
52919;DHT22;38793;52.690;6.812;2023-01-19T15:49:49;5.80;99.90
52919;DHT22;38793;52.690;6.812;2023-01-19T15:52:14;5.80;99.90
52919;DHT22;38793;52.690;6.812;2023-01-19T15:54:40;5.70;99.90
52919;DHT22;38793;52.690;6.812;2023-01-19T15:57:05;5.70;99.90
52919;DHT22;38793;52.690;6.812;2023-01-19T15:59:31;5.60;99.90
52919;DHT22;38793;52.690;6.812;2023-01-19T16:01:56;5.60;99.90
52919;DHT22;38793;52.690;6.812;2023-01-19T16:04:22;5.50;99.90
52919;DHT22;38793;52.690;6.812;2023-01-19T16:06:48;5.50;99.90
52919;DHT22;38793;52.690;6.812;2023-01-19T16:09:14;5.50;99.90
52919;DHT22;38793;52.690;6.812;2023-01-19T16:11:43;5.40;99.90
52919;DHT22;38793;52.690;6.812;2023-01-19T16:14:09;5.40;99.90
52919;DHT22;38793;52.690;6.812;2023-01-19T16:16:34;5.40;99.90
52919;DHT22;38793;52.690;6.812;2023-01-19T16:19:00;5.30;99.90
52919;DHT22;38793;52.690;6.812;2023-01-19T16:21:26;5.30;99.90
52919;DHT22;38793;52.690;6.812;2023-01-19T16:23:52;5.30;99.90
52919;DHT22;38793;52.690;6.812;2023-01-19T16:26:24;5.20;99.90
52919;DHT22;38793;52.690;6.812;2023-01-19T16:28:50;5.20;99.90
52919;DHT22;38793;52.690;6.812;2023-01-19T16:31:16;5.10;99.90
52919;DHT22;38793;52.690;6.812;2023-01-19T16:33:43;5.10;99.90
52919;DHT22;38793;52.690;6.812;2023-01-19T16:36:19;5.10;99.90
52919;DHT22;38793;52.690;6.812;2023-01-19T16:38:45;5.00;99.90
52919;DHT22;38793;52.690;6.812;2023-01-19T16:41:10;5.00;99.90
52919;DHT22;38793;52.690;6.812;2023-01-19T16:43:36;4.80;99.90
52919;DHT22;38793;52.690;6.812;2023-01-19T16:46:02;4.80;99.90
52919;DHT22;38793;52.690;6.812;2023-01-19T16:48:28;4.60;99.90
52919;DHT22;38793;52.690;6.812;2023-01-19T16:51:03;4.50;99.90
52919;DHT22;38793;52.690;6.812;2023-01-19T16:53:31;4.40;99.90
52919;DHT22;38793;52.690;6.812;2023-01-19T16:55:56;4.30;99.90
52919;DHT22;38793;52.690;6.812;2023-01-19T16:58:22;4.20;99.90
52919;DHT22;38793;52.690;6.812;2023-01-19T17:00:48;4.10;99.90
52919;DHT22;38793;52.690;6.812;2023-01-19T17:03:14;4.00;99.90